sensor_id;sensor_type;location;lat;lon;timestamp;temperature;humidity
21033;DHT22;10675;47.976;7.824;2022-12-15T00:02:02;0.50;99.90
21033;DHT22;10675;47.976;7.824;2022-12-15T00:04:46;0.50;99.90
21033;DHT22;10675;47.976;7.824;2022-12-15T00:07:31;0.60;99.90
21033;DHT22;10675;47.976;7.824;2022-12-15T00:10:15;0.50;99.90
21033;DHT22;10675;47.976;7.824;2022-12-15T00:12:59;0.40;99.90
21033;DHT22;10675;47.976;7.824;2022-12-15T00:15:45;0.50;99.90
21033;DHT22;10675;47.976;7.824;2022-12-15T00:18:29;0.50;99.90
21033;DHT22;10675;47.976;7.824;2022-12-15T00:21:13;0.40;99.90
21033;DHT22;10675;47.976;7.824;2022-12-15T00:23:57;0.40;99.90
21033;DHT22;10675;47.976;7.824;2022-12-15T00:26:41;0.40;99.90
21033;DHT22;10675;47.976;7.824;2022-12-15T00:29:26;0.50;99.90
21033;DHT22;10675;47.976;7.824;2022-12-15T00:32:10;0.50;99.90
21033;DHT22;10675;47.976;7.824;2022-12-15T00:34:54;0.40;99.90
21033;DHT22;10675;47.976;7.824;2022-12-15T00:37:38;0.40;99.90
21033;DHT22;10675;47.976;7.824;2022-12-15T00:40:22;0.30;99.90
21033;DHT22;10675;47.976;7.824;2022-12-15T00:42:47;0.40;99.90
21033;DHT22;10675;47.976;7.824;2022-12-15T00:45:13;0.40;99.90
21033;DHT22;10675;47.976;7.824;2022-12-15T00:47:38;0.40;99.90
21033;DHT22;10675;47.976;7.824;2022-12-15T00:50:04;0.40;99.90
21033;DHT22;10675;47.976;7.824;2022-12-15T00:52:49;0.50;99.90
21033;DHT22;10675;47.976;7.824;2022-12-15T00:55:33;0.40;99.90
21033;DHT22;10675;47.976;7.824;2022-12-15T00:58:17;0.30;99.90
21033;DHT22;10675;47.976;7.824;2022-12-15T01:01:08;0.30;99.90
21033;DHT22;10675;47.976;7.824;2022-12-15T01:03:52;0.30;99.90
21033;DHT22;10675;47.976;7.824;2022-12-15T01:06:36;0.30;99.90
21033;DHT22;10675;47.976;7.824;2022-12-15T01:09:20;0.30;99.90
21033;DHT22;10675;47.976;7.824;2022-12-15T01:12:05;0.30;99.90
21033;DHT22;10675;47.976;7.824;2022-12-15T01:14:49;0.30;99.90
21033;DHT22;10675;47.976;7.824;2022-12-15T01:17:33;0.40;99.90
21033;DHT22;10675;47.976;7.824;2022-12-15T01:20:17;0.30;99.90
21033;DHT22;10675;47.976;7.824;2022-12-15T01:22:47;0.30;99.90
21033;DHT22;10675;47.976;7.824;2022-12-15T01:25:14;0.30;99.90
21033;DHT22;10675;47.976;7.824;2022-12-15T01:27:41;0.30;99.90
21033;DHT22;10675;47.976;7.824;2022-12-15T01:30:08;0.30;99.90
21033;DHT22;10675;47.976;7.824;2022-12-15T01:32:35;0.30;99.90
21033;DHT22;10675;47.976;7.824;2022-12-15T01:35:01;0.30;99.90
21033;DHT22;10675;47.976;7.824;2022-12-15T01:37:26;0.30;99.90
21033;DHT22;10675;47.976;7.824;2022-12-15T01:39:51;0.30;99.90
21033;DHT22;10675;47.976;7.824;2022-12-15T01:42:36;0.20;99.90
21033;DHT22;10675;47.976;7.824;2022-12-15T01:50:27;0.00;99.90
21033;DHT22;10675;47.976;7.824;2022-12-15T01:52:53;0.10;99.90
21033;DHT22;10675;47.976;7.824;2022-12-15T01:55:21;0.20;99.90
21033;DHT22;10675;47.976;7.824;2022-12-15T01:57:51;0.10;99.90
21033;DHT22;10675;47.976;7.824;2022-12-15T02:00:19;0.20;99.90
21033;DHT22;10675;47.976;7.824;2022-12-15T02:02:44;0.20;99.90
21033;DHT22;10675;47.976;7.824;2022-12-15T02:05:10;0.30;99.90
21033;DHT22;10675;47.976;7.824;2022-12-15T02:07:36;0.30;99.90
21033;DHT22;10675;47.976;7.824;2022-12-15T02:10:04;0.30;99.90
21033;DHT22;10675;47.976;7.824;2022-12-15T02:13:02;0.20;99.90
21033;DHT22;10675;47.976;7.824;2022-12-15T02:15:42;0.20;99.90
21033;DHT22;10675;47.976;7.824;2022-12-15T02:18:34;0.20;99.90
21033;DHT22;10675;47.976;7.824;2022-12-15T02:21:28;0.10;99.90
21033;DHT22;10675;47.976;7.824;2022-12-15T02:27:15;0.20;99.90
21033;DHT22;10675;47.976;7.824;2022-12-15T02:32:44;0.20;99.90
21033;DHT22;10675;47.976;7.824;2022-12-15T02:38:11;0.20;99.90
21033;DHT22;10675;47.976;7.824;2022-12-15T02:40:36;0.10;99.90
21033;DHT22;10675;47.976;7.824;2022-12-15T02:43:04;0.10;99.90
21033;DHT22;10675;47.976;7.824;2022-12-15T02:45:35;0.10;99.90
21033;DHT22;10675;47.976;7.824;2022-12-15T02:48:26;0.00;99.90
21033;DHT22;10675;47.976;7.824;2022-12-15T02:56:29;0.10;99.90
21033;DHT22;10675;47.976;7.824;2022-12-15T02:59:19;0.10;99.90
21033;DHT22;10675;47.976;7.824;2022-12-15T03:01:50;0.30;99.90
21033;DHT22;10675;47.976;7.824;2022-12-15T03:04:18;0.00;99.90
21033;DHT22;10675;47.976;7.824;2022-12-15T03:06:44;0.00;99.90
21033;DHT22;10675;47.976;7.824;2022-12-15T03:09:09;0.10;99.90
21033;DHT22;10675;47.976;7.824;2022-12-15T03:11:36;0.10;99.90
21033;DHT22;10675;47.976;7.824;2022-12-15T03:14:02;0.10;99.90
21033;DHT22;10675;47.976;7.824;2022-12-15T03:16:27;0.00;99.90
21033;DHT22;10675;47.976;7.824;2022-12-15T03:18:53;0.00;99.90
21033;DHT22;10675;47.976;7.824;2022-12-15T03:21:18;0.10;99.90
21033;DHT22;10675;47.976;7.824;2022-12-15T03:23:44;0.20;99.90
21033;DHT22;10675;47.976;7.824;2022-12-15T03:26:09;0.20;99.90
21033;DHT22;10675;47.976;7.824;2022-12-15T03:28:36;0.00;99.90
21033;DHT22;10675;47.976;7.824;2022-12-15T03:31:01;0.00;99.90
21033;DHT22;10675;47.976;7.824;2022-12-15T03:33:27;0.00;99.90
21033;DHT22;10675;47.976;7.824;2022-12-15T03:35:52;0.00;99.90
21033;DHT22;10675;47.976;7.824;2022-12-15T03:38:18;-0.10;99.90
21033;DHT22;10675;47.976;7.824;2022-12-15T03:40:43;-0.10;99.90
21033;DHT22;10675;47.976;7.824;2022-12-15T03:43:09;0.00;99.90
21033;DHT22;10675;47.976;7.824;2022-12-15T03:45:34;0.00;99.90
21033;DHT22;10675;47.976;7.824;2022-12-15T03:48:00;-0.10;99.90
21033;DHT22;10675;47.976;7.824;2022-12-15T03:50:27;-0.10;99.90
21033;DHT22;10675;47.976;7.824;2022-12-15T03:53:03;0.00;99.90
21033;DHT22;10675;47.976;7.824;2022-12-15T03:55:29;0.10;99.90
21033;DHT22;10675;47.976;7.824;2022-12-15T03:57:55;0.20;99.90
21033;DHT22;10675;47.976;7.824;2022-12-15T04:00:22;0.20;99.90
21033;DHT22;10675;47.976;7.824;2022-12-15T04:02:49;0.10;99.90
21033;DHT22;10675;47.976;7.824;2022-12-15T04:05:25;0.10;99.90
21033;DHT22;10675;47.976;7.824;2022-12-15T04:07:56;0.10;99.90
21033;DHT22;10675;47.976;7.824;2022-12-15T04:10:23;0.00;99.90
21033;DHT22;10675;47.976;7.824;2022-12-15T04:12:55;0.10;99.90
21033;DHT22;10675;47.976;7.824;2022-12-15T04:15:20;0.00;99.90
21033;DHT22;10675;47.976;7.824;2022-12-15T04:17:46;0.20;99.90
21033;DHT22;10675;47.976;7.824;2022-12-15T04:20:11;0.20;99.90
21033;DHT22;10675;47.976;7.824;2022-12-15T04:22:42;0.20;99.90
21033;DHT22;10675;47.976;7.824;2022-12-15T04:25:11;0.10;99.90
21033;DHT22;10675;47.976;7.824;2022-12-15T04:27:55;0.10;99.90
21033;DHT22;10675;47.976;7.824;2022-12-15T04:30:44;0.10;99.90
21033;DHT22;10675;47.976;7.824;2022-12-15T04:33:29;0.10;99.90
21033;DHT22;10675;47.976;7.824;2022-12-15T04:36:15;-0.10;99.90
21033;DHT22;10675;47.976;7.824;2022-12-15T04:38:59;-0.10;99.90
21033;DHT22;10675;47.976;7.824;2022-12-15T04:41:43;-0.10;99.90
21033;DHT22;10675;47.976;7.824;2022-12-15T04:44:28;-0.10;99.90
21033;DHT22;10675;47.976;7.824;2022-12-15T04:47:13;0.00;99.90
21033;DHT22;10675;47.976;7.824;2022-12-15T04:49:57;-0.10;99.90
21033;DHT22;10675;47.976;7.824;2022-12-15T04:52:41;-0.10;99.90
21033;DHT22;10675;47.976;7.824;2022-12-15T04:55:25;-0.10;99.90
21033;DHT22;10675;47.976;7.824;2022-12-15T04:58:10;-0.10;99.90
21033;DHT22;10675;47.976;7.824;2022-12-15T05:00:56;0.00;99.90
21033;DHT22;10675;47.976;7.824;2022-12-15T05:03:40;0.10;99.90
21033;DHT22;10675;47.976;7.824;2022-12-15T05:06:24;0.00;99.90
21033;DHT22;10675;47.976;7.824;2022-12-15T05:09:08;0.20;99.90
21033;DHT22;10675;47.976;7.824;2022-12-15T05:11:53;0.20;99.90
21033;DHT22;10675;47.976;7.824;2022-12-15T05:14:37;0.10;99.90
21033;DHT22;10675;47.976;7.824;2022-12-15T05:17:21;0.00;99.90
21033;DHT22;10675;47.976;7.824;2022-12-15T05:20:05;0.00;99.90
21033;DHT22;10675;47.976;7.824;2022-12-15T05:22:56;0.10;99.90
21033;DHT22;10675;47.976;7.824;2022-12-15T05:25:41;0.10;99.90
21033;DHT22;10675;47.976;7.824;2022-12-15T05:28:25;0.00;99.90
21033;DHT22;10675;47.976;7.824;2022-12-15T05:31:10;-0.10;99.90
21033;DHT22;10675;47.976;7.824;2022-12-15T05:33:55;-0.10;99.90
21033;DHT22;10675;47.976;7.824;2022-12-15T05:36:21;-0.10;99.90
21033;DHT22;10675;47.976;7.824;2022-12-15T05:38:49;-0.10;99.90
21033;DHT22;10675;47.976;7.824;2022-12-15T05:41:16;0.00;99.90
21033;DHT22;10675;47.976;7.824;2022-12-15T05:43:41;0.00;99.90
21033;DHT22;10675;47.976;7.824;2022-12-15T05:46:07;0.00;99.90
21033;DHT22;10675;47.976;7.824;2022-12-15T05:48:32;-0.10;99.90
21033;DHT22;10675;47.976;7.824;2022-12-15T05:51:05;0.00;99.90
21033;DHT22;10675;47.976;7.824;2022-12-15T05:53:32;0.00;99.90
21033;DHT22;10675;47.976;7.824;2022-12-15T05:56:11;0.00;99.90
21033;DHT22;10675;47.976;7.824;2022-12-15T05:58:39;0.00;99.90
21033;DHT22;10675;47.976;7.824;2022-12-15T06:01:11;-0.10;99.90
21033;DHT22;10675;47.976;7.824;2022-12-15T06:03:38;0.00;99.90
21033;DHT22;10675;47.976;7.824;2022-12-15T06:06:04;-0.20;99.90
21033;DHT22;10675;47.976;7.824;2022-12-15T06:08:32;-0.20;99.90
21033;DHT22;10675;47.976;7.824;2022-12-15T06:10:58;-0.10;99.90
21033;DHT22;10675;47.976;7.824;2022-12-15T06:13:24;-0.10;99.90
21033;DHT22;10675;47.976;7.824;2022-12-15T06:15:59;-0.10;99.90
21033;DHT22;10675;47.976;7.824;2022-12-15T06:18:28;-0.20;99.90
21033;DHT22;10675;47.976;7.824;2022-12-15T06:21:03;-0.30;99.90
21033;DHT22;10675;47.976;7.824;2022-12-15T06:23:30;-0.20;99.90
21033;DHT22;10675;47.976;7.824;2022-12-15T06:25:57;-0.20;99.90
21033;DHT22;10675;47.976;7.824;2022-12-15T06:28:24;-0.30;99.90
21033;DHT22;10675;47.976;7.824;2022-12-15T06:30:54;-0.30;99.90
21033;DHT22;10675;47.976;7.824;2022-12-15T06:33:21;-0.20;99.90
21033;DHT22;10675;47.976;7.824;2022-12-15T06:35:48;-0.20;99.90
21033;DHT22;10675;47.976;7.824;2022-12-15T06:38:14;-0.20;99.90
21033;DHT22;10675;47.976;7.824;2022-12-15T06:40:39;-0.20;99.90
21033;DHT22;10675;47.976;7.824;2022-12-15T06:43:06;-0.30;99.90
21033;DHT22;10675;47.976;7.824;2022-12-15T06:45:32;-0.30;99.90
21033;DHT22;10675;47.976;7.824;2022-12-15T06:47:58;-0.40;99.90
21033;DHT22;10675;47.976;7.824;2022-12-15T06:50:23;-0.40;99.90
21033;DHT22;10675;47.976;7.824;2022-12-15T06:52:49;-0.40;99.90
21033;DHT22;10675;47.976;7.824;2022-12-15T06:55:14;-0.30;99.90
21033;DHT22;10675;47.976;7.824;2022-12-15T06:57:40;-0.40;99.90
21033;DHT22;10675;47.976;7.824;2022-12-15T07:00:06;-0.20;99.90
21033;DHT22;10675;47.976;7.824;2022-12-15T07:02:32;-0.30;99.90
21033;DHT22;10675;47.976;7.824;2022-12-15T07:04:58;-0.30;99.90
21033;DHT22;10675;47.976;7.824;2022-12-15T07:07:24;-0.40;99.90
21033;DHT22;10675;47.976;7.824;2022-12-15T07:09:50;-0.40;99.90
21033;DHT22;10675;47.976;7.824;2022-12-15T07:12:16;-0.50;99.90
21033;DHT22;10675;47.976;7.824;2022-12-15T07:14:42;-0.40;99.90
21033;DHT22;10675;47.976;7.824;2022-12-15T07:17:08;-0.40;99.90
21033;DHT22;10675;47.976;7.824;2022-12-15T07:19:35;-0.40;99.90
21033;DHT22;10675;47.976;7.824;2022-12-15T07:22:01;-0.50;99.90
21033;DHT22;10675;47.976;7.824;2022-12-15T07:24:27;-0.40;99.90
21033;DHT22;10675;47.976;7.824;2022-12-15T07:26:52;-0.50;99.90
21033;DHT22;10675;47.976;7.824;2022-12-15T07:29:19;-0.60;99.90
21033;DHT22;10675;47.976;7.824;2022-12-15T07:31:45;-0.70;99.90
21033;DHT22;10675;47.976;7.824;2022-12-15T07:34:10;-0.60;99.90
21033;DHT22;10675;47.976;7.824;2022-12-15T07:36:36;-0.60;99.90
21033;DHT22;10675;47.976;7.824;2022-12-15T07:39:03;-0.60;99.90
21033;DHT22;10675;47.976;7.824;2022-12-15T07:41:29;-0.60;99.90
21033;DHT22;10675;47.976;7.824;2022-12-15T07:43:55;-0.70;99.90
21033;DHT22;10675;47.976;7.824;2022-12-15T07:46:21;-0.50;99.90
21033;DHT22;10675;47.976;7.824;2022-12-15T07:48:48;-0.60;99.90
21033;DHT22;10675;47.976;7.824;2022-12-15T07:51:14;-0.60;99.90
21033;DHT22;10675;47.976;7.824;2022-12-15T07:53:40;-0.50;99.90
21033;DHT22;10675;47.976;7.824;2022-12-15T07:56:06;-0.50;99.90
21033;DHT22;10675;47.976;7.824;2022-12-15T07:58:32;-0.50;99.90
21033;DHT22;10675;47.976;7.824;2022-12-15T08:00:59;-0.30;99.90
21033;DHT22;10675;47.976;7.824;2022-12-15T08:03:26;-0.50;99.90
21033;DHT22;10675;47.976;7.824;2022-12-15T08:05:51;-0.30;99.90
21033;DHT22;10675;47.976;7.824;2022-12-15T08:08:18;-0.30;99.90
21033;DHT22;10675;47.976;7.824;2022-12-15T08:10:44;-0.40;99.90
21033;DHT22;10675;47.976;7.824;2022-12-15T08:13:11;-0.40;99.90
21033;DHT22;10675;47.976;7.824;2022-12-15T08:15:36;-0.40;99.90
21033;DHT22;10675;47.976;7.824;2022-12-15T08:18:04;-0.40;99.90
21033;DHT22;10675;47.976;7.824;2022-12-15T08:20:30;-0.50;99.90
21033;DHT22;10675;47.976;7.824;2022-12-15T08:22:56;-0.50;99.90
21033;DHT22;10675;47.976;7.824;2022-12-15T08:25:21;-0.30;99.90
21033;DHT22;10675;47.976;7.824;2022-12-15T08:27:50;-0.20;99.90
21033;DHT22;10675;47.976;7.824;2022-12-15T08:30:15;-0.30;99.90
21033;DHT22;10675;47.976;7.824;2022-12-15T08:32:43;-0.30;99.90
21033;DHT22;10675;47.976;7.824;2022-12-15T08:35:09;-0.30;99.90
21033;DHT22;10675;47.976;7.824;2022-12-15T08:37:34;-0.30;99.90
21033;DHT22;10675;47.976;7.824;2022-12-15T08:40:00;-0.40;99.90
21033;DHT22;10675;47.976;7.824;2022-12-15T08:42:26;0.30;99.90
21033;DHT22;10675;47.976;7.824;2022-12-15T08:44:51;0.30;99.90
21033;DHT22;10675;47.976;7.824;2022-12-15T08:47:17;0.00;99.90
21033;DHT22;10675;47.976;7.824;2022-12-15T08:49:42;-0.20;99.90
21033;DHT22;10675;47.976;7.824;2022-12-15T08:52:08;-0.30;99.90
21033;DHT22;10675;47.976;7.824;2022-12-15T08:54:33;-0.30;99.90
21033;DHT22;10675;47.976;7.824;2022-12-15T08:56:59;-0.40;99.90
21033;DHT22;10675;47.976;7.824;2022-12-15T08:59:25;-0.20;99.90
21033;DHT22;10675;47.976;7.824;2022-12-15T09:01:50;-0.50;99.90
21033;DHT22;10675;47.976;7.824;2022-12-15T09:04:16;-0.40;99.90
21033;DHT22;10675;47.976;7.824;2022-12-15T09:06:42;-0.40;99.90
21033;DHT22;10675;47.976;7.824;2022-12-15T09:09:10;-0.40;99.90
21033;DHT22;10675;47.976;7.824;2022-12-15T09:11:36;-0.40;99.90
21033;DHT22;10675;47.976;7.824;2022-12-15T09:14:02;-0.30;99.90
21033;DHT22;10675;47.976;7.824;2022-12-15T09:16:28;-0.40;99.90
21033;DHT22;10675;47.976;7.824;2022-12-15T09:18:56;-0.30;99.90
21033;DHT22;10675;47.976;7.824;2022-12-15T09:21:24;-0.30;99.90
21033;DHT22;10675;47.976;7.824;2022-12-15T09:23:55;-0.30;99.90
21033;DHT22;10675;47.976;7.824;2022-12-15T09:26:24;-0.20;99.90
21033;DHT22;10675;47.976;7.824;2022-12-15T09:28:50;-0.20;99.90
21033;DHT22;10675;47.976;7.824;2022-12-15T09:31:24;-0.10;99.90
21033;DHT22;10675;47.976;7.824;2022-12-15T09:33:52;-0.10;99.90
21033;DHT22;10675;47.976;7.824;2022-12-15T09:36:19;-0.20;99.90
21033;DHT22;10675;47.976;7.824;2022-12-15T09:38:45;-0.10;99.90
21033;DHT22;10675;47.976;7.824;2022-12-15T09:43:55;-0.30;99.90
21033;DHT22;10675;47.976;7.824;2022-12-15T09:46:28;-0.30;99.90
21033;DHT22;10675;47.976;7.824;2022-12-15T09:48:57;-0.30;99.90
21033;DHT22;10675;47.976;7.824;2022-12-15T09:51:38;-0.20;99.90
21033;DHT22;10675;47.976;7.824;2022-12-15T09:54:06;-0.20;99.90
21033;DHT22;10675;47.976;7.824;2022-12-15T09:56:46;0.00;99.90
21033;DHT22;10675;47.976;7.824;2022-12-15T09:59:30;-0.10;99.90
21033;DHT22;10675;47.976;7.824;2022-12-15T10:04:37;-0.30;99.90
21033;DHT22;10675;47.976;7.824;2022-12-15T10:09:49;-0.10;99.90
21033;DHT22;10675;47.976;7.824;2022-12-15T10:12:35;-0.10;99.90
21033;DHT22;10675;47.976;7.824;2022-12-15T10:15:14;-0.20;99.90
21033;DHT22;10675;47.976;7.824;2022-12-15T10:17:59;-0.20;99.90
21033;DHT22;10675;47.976;7.824;2022-12-15T10:20:29;-0.20;99.90
21033;DHT22;10675;47.976;7.824;2022-12-15T10:22:58;-0.30;99.90
21033;DHT22;10675;47.976;7.824;2022-12-15T10:25:26;-0.30;99.90
21033;DHT22;10675;47.976;7.824;2022-12-15T10:30:58;-0.30;99.90
21033;DHT22;10675;47.976;7.824;2022-12-15T10:33:27;-0.20;99.90
21033;DHT22;10675;47.976;7.824;2022-12-15T10:35:55;-0.20;99.90
21033;DHT22;10675;47.976;7.824;2022-12-15T10:38:32;-0.20;99.90
21033;DHT22;10675;47.976;7.824;2022-12-15T10:41:01;-0.30;99.90
21033;DHT22;10675;47.976;7.824;2022-12-15T10:43:38;-0.20;99.90
21033;DHT22;10675;47.976;7.824;2022-12-15T10:48:34;-0.10;99.90
21033;DHT22;10675;47.976;7.824;2022-12-15T10:51:18;-0.20;99.90
21033;DHT22;10675;47.976;7.824;2022-12-15T10:53:53;-0.20;99.90
21033;DHT22;10675;47.976;7.824;2022-12-15T10:56:29;-0.30;99.90
21033;DHT22;10675;47.976;7.824;2022-12-15T10:59:00;-0.20;99.90
21033;DHT22;10675;47.976;7.824;2022-12-15T11:01:32;-0.20;99.90
21033;DHT22;10675;47.976;7.824;2022-12-15T11:06:28;-0.20;99.90
21033;DHT22;10675;47.976;7.824;2022-12-15T11:08:57;-0.20;99.90
21033;DHT22;10675;47.976;7.824;2022-12-15T11:11:33;-0.20;99.90
21033;DHT22;10675;47.976;7.824;2022-12-15T11:14:23;-0.10;99.90
21033;DHT22;10675;47.976;7.824;2022-12-15T11:16:54;-0.20;99.90
21033;DHT22;10675;47.976;7.824;2022-12-15T11:19:27;-0.20;99.90
21033;DHT22;10675;47.976;7.824;2022-12-15T11:22:00;0.00;99.90
21033;DHT22;10675;47.976;7.824;2022-12-15T11:24:42;-0.10;99.90
21033;DHT22;10675;47.976;7.824;2022-12-15T11:27:27;-0.30;99.90
21033;DHT22;10675;47.976;7.824;2022-12-15T11:30:16;-0.20;99.90
21033;DHT22;10675;47.976;7.824;2022-12-15T11:32:45;-0.20;99.90
21033;DHT22;10675;47.976;7.824;2022-12-15T11:35:14;-0.10;99.90
21033;DHT22;10675;47.976;7.824;2022-12-15T11:37:48;-0.30;99.90
21033;DHT22;10675;47.976;7.824;2022-12-15T11:40:35;-0.20;99.90
21033;DHT22;10675;47.976;7.824;2022-12-15T11:43:13;-0.30;99.90
21033;DHT22;10675;47.976;7.824;2022-12-15T11:48:30;0.00;99.90
21033;DHT22;10675;47.976;7.824;2022-12-15T11:51:02;-0.20;99.90
21033;DHT22;10675;47.976;7.824;2022-12-15T12:01:59;0.00;99.90
21033;DHT22;10675;47.976;7.824;2022-12-15T12:07:44;0.10;99.90
21033;DHT22;10675;47.976;7.824;2022-12-15T12:12:42;0.10;99.90
21033;DHT22;10675;47.976;7.824;2022-12-15T12:17:42;-0.20;99.90
21033;DHT22;10675;47.976;7.824;2022-12-15T12:20:16;0.00;99.90
21033;DHT22;10675;47.976;7.824;2022-12-15T12:22:59;0.00;99.90
21033;DHT22;10675;47.976;7.824;2022-12-15T12:25:33;-0.30;99.90
21033;DHT22;10675;47.976;7.824;2022-12-15T12:28:05;-0.20;99.90
21033;DHT22;10675;47.976;7.824;2022-12-15T12:30:41;-0.10;99.90
21033;DHT22;10675;47.976;7.824;2022-12-15T12:35:53;-0.20;99.90
21033;DHT22;10675;47.976;7.824;2022-12-15T12:38:29;-0.30;99.90
21033;DHT22;10675;47.976;7.824;2022-12-15T12:41:08;-0.20;99.90
21033;DHT22;10675;47.976;7.824;2022-12-15T12:43:42;-0.30;99.90
21033;DHT22;10675;47.976;7.824;2022-12-15T12:48:55;-0.30;99.90
21033;DHT22;10675;47.976;7.824;2022-12-15T12:51:29;-0.30;99.90
21033;DHT22;10675;47.976;7.824;2022-12-15T12:53:57;-0.20;99.90
21033;DHT22;10675;47.976;7.824;2022-12-15T12:56:37;-0.20;99.90
21033;DHT22;10675;47.976;7.824;2022-12-15T12:59:30;-0.10;99.90
21033;DHT22;10675;47.976;7.824;2022-12-15T13:01:50;-0.10;99.90
21033;DHT22;10675;47.976;7.824;2022-12-15T13:09:21;-0.10;99.90
21033;DHT22;10675;47.976;7.824;2022-12-15T13:14:15;0.00;99.90
21033;DHT22;10675;47.976;7.824;2022-12-15T13:16:43;0.00;99.90
21033;DHT22;10675;47.976;7.824;2022-12-15T13:19:10;0.10;99.90
21033;DHT22;10675;47.976;7.824;2022-12-15T13:26:49;0.10;99.90
21033;DHT22;10675;47.976;7.824;2022-12-15T13:29:17;0.00;99.90
21033;DHT22;10675;47.976;7.824;2022-12-15T13:31:47;0.00;99.90
21033;DHT22;10675;47.976;7.824;2022-12-15T13:34:22;0.10;99.90
21033;DHT22;10675;47.976;7.824;2022-12-15T13:36:50;0.20;99.90
21033;DHT22;10675;47.976;7.824;2022-12-15T13:46:51;0.20;99.90
21033;DHT22;10675;47.976;7.824;2022-12-15T13:54:57;0.20;99.90
21033;DHT22;10675;47.976;7.824;2022-12-15T13:57:24;0.20;99.90
21033;DHT22;10675;47.976;7.824;2022-12-15T14:00:13;0.20;99.90
21033;DHT22;10675;47.976;7.824;2022-12-15T14:02:43;0.20;99.90
21033;DHT22;10675;47.976;7.824;2022-12-15T14:05:17;0.20;99.90
21033;DHT22;10675;47.976;7.824;2022-12-15T14:10:21;0.20;99.90
21033;DHT22;10675;47.976;7.824;2022-12-15T14:12:49;0.20;99.90
21033;DHT22;10675;47.976;7.824;2022-12-15T14:15:17;0.10;99.90
21033;DHT22;10675;47.976;7.824;2022-12-15T14:17:49;0.10;99.90
21033;DHT22;10675;47.976;7.824;2022-12-15T14:20:22;0.10;99.90
21033;DHT22;10675;47.976;7.824;2022-12-15T14:22:49;0.10;99.90
21033;DHT22;10675;47.976;7.824;2022-12-15T14:25:27;0.20;99.90
21033;DHT22;10675;47.976;7.824;2022-12-15T14:27:57;0.10;99.90
21033;DHT22;10675;47.976;7.824;2022-12-15T14:30:25;0.00;99.90
21033;DHT22;10675;47.976;7.824;2022-12-15T14:33:03;-0.10;99.90
21033;DHT22;10675;47.976;7.824;2022-12-15T14:35:43;-0.10;99.90
21033;DHT22;10675;47.976;7.824;2022-12-15T14:38:23;-0.30;99.90
21033;DHT22;10675;47.976;7.824;2022-12-15T14:40:52;-0.20;99.90
21033;DHT22;10675;47.976;7.824;2022-12-15T14:43:24;-0.10;99.90
21033;DHT22;10675;47.976;7.824;2022-12-15T14:45:55;-0.20;99.90
21033;DHT22;10675;47.976;7.824;2022-12-15T14:48:33;0.00;99.90
21033;DHT22;10675;47.976;7.824;2022-12-15T14:51:00;0.00;99.90
21033;DHT22;10675;47.976;7.824;2022-12-15T14:53:32;0.30;99.90
21033;DHT22;10675;47.976;7.824;2022-12-15T14:56:32;-0.10;99.90
21033;DHT22;10675;47.976;7.824;2022-12-15T14:59:17;-0.10;99.90
21033;DHT22;10675;47.976;7.824;2022-12-15T15:04:31;-0.10;99.90
21033;DHT22;10675;47.976;7.824;2022-12-15T15:07:00;-0.10;99.90
21033;DHT22;10675;47.976;7.824;2022-12-15T15:09:31;-0.10;99.90
21033;DHT22;10675;47.976;7.824;2022-12-15T15:12:08;-0.20;99.90
21033;DHT22;10675;47.976;7.824;2022-12-15T15:14:47;-0.20;99.90
21033;DHT22;10675;47.976;7.824;2022-12-15T15:19:52;-0.30;99.90
21033;DHT22;10675;47.976;7.824;2022-12-15T15:22:38;-0.20;99.90
21033;DHT22;10675;47.976;7.824;2022-12-15T15:25:24;-0.30;99.90
21033;DHT22;10675;47.976;7.824;2022-12-15T15:27:50;-0.20;99.90
21033;DHT22;10675;47.976;7.824;2022-12-15T15:30:20;-0.20;99.90
21033;DHT22;10675;47.976;7.824;2022-12-15T15:32:57;-0.20;99.90
21033;DHT22;10675;47.976;7.824;2022-12-15T15:35:33;-0.30;99.90
21033;DHT22;10675;47.976;7.824;2022-12-15T15:38:06;-0.40;99.90
21033;DHT22;10675;47.976;7.824;2022-12-15T15:40:35;-0.40;99.90
21033;DHT22;10675;47.976;7.824;2022-12-15T15:43:06;-0.50;99.90
21033;DHT22;10675;47.976;7.824;2022-12-15T15:45:32;-0.60;99.90
21033;DHT22;10675;47.976;7.824;2022-12-15T15:47:57;-0.60;99.90
21033;DHT22;10675;47.976;7.824;2022-12-15T15:50:27;-0.50;99.90
21033;DHT22;10675;47.976;7.824;2022-12-15T15:52:53;-0.40;99.90
21033;DHT22;10675;47.976;7.824;2022-12-15T15:55:25;-0.40;99.90
21033;DHT22;10675;47.976;7.824;2022-12-15T15:57:51;-0.50;99.90
21033;DHT22;10675;47.976;7.824;2022-12-15T16:00:20;-0.40;99.90
21033;DHT22;10675;47.976;7.824;2022-12-15T16:02:46;-0.30;99.90
21033;DHT22;10675;47.976;7.824;2022-12-15T16:05:12;-0.30;99.90
21033;DHT22;10675;47.976;7.824;2022-12-15T16:07:39;-0.30;99.90
21033;DHT22;10675;47.976;7.824;2022-12-15T16:10:14;-0.30;99.90
21033;DHT22;10675;47.976;7.824;2022-12-15T16:12:44;-0.30;99.90
21033;DHT22;10675;47.976;7.824;2022-12-15T16:15:19;-0.30;99.90
21033;DHT22;10675;47.976;7.824;2022-12-15T16:17:46;-0.20;99.90
21033;DHT22;10675;47.976;7.824;2022-12-15T16:20:13;-0.20;99.90
21033;DHT22;10675;47.976;7.824;2022-12-15T16:22:44;-0.30;99.90
21033;DHT22;10675;47.976;7.824;2022-12-15T16:25:20;-0.30;99.90
21033;DHT22;10675;47.976;7.824;2022-12-15T16:27:48;-0.30;99.90
21033;DHT22;10675;47.976;7.824;2022-12-15T16:30:19;-0.30;99.90
21033;DHT22;10675;47.976;7.824;2022-12-15T16:32:45;-0.30;99.90
21033;DHT22;10675;47.976;7.824;2022-12-15T16:35:11;-0.30;99.90
21033;DHT22;10675;47.976;7.824;2022-12-15T16:37:37;-0.20;99.90
21033;DHT22;10675;47.976;7.824;2022-12-15T16:40:21;-0.20;99.90
21033;DHT22;10675;47.976;7.824;2022-12-15T16:42:58;-0.20;99.90
21033;DHT22;10675;47.976;7.824;2022-12-15T16:45:27;-0.10;99.90
21033;DHT22;10675;47.976;7.824;2022-12-15T16:47:53;-0.10;99.90
21033;DHT22;10675;47.976;7.824;2022-12-15T16:50:24;-0.20;99.90
21033;DHT22;10675;47.976;7.824;2022-12-15T16:52:53;-0.40;99.90
21033;DHT22;10675;47.976;7.824;2022-12-15T16:55:28;-0.20;99.90
21033;DHT22;10675;47.976;7.824;2022-12-15T16:58:02;-0.20;99.90
21033;DHT22;10675;47.976;7.824;2022-12-15T17:00:30;-0.20;99.90
21033;DHT22;10675;47.976;7.824;2022-12-15T17:02:57;-0.20;99.90
21033;DHT22;10675;47.976;7.824;2022-12-15T17:05:25;-0.20;99.90
21033;DHT22;10675;47.976;7.824;2022-12-15T17:07:54;-0.20;99.90
21033;DHT22;10675;47.976;7.824;2022-12-15T17:10:24;-0.10;99.90
21033;DHT22;10675;47.976;7.824;2022-12-15T17:12:50;-0.20;99.90
21033;DHT22;10675;47.976;7.824;2022-12-15T17:15:21;-0.20;99.90
21033;DHT22;10675;47.976;7.824;2022-12-15T17:17:48;-0.10;99.90
21033;DHT22;10675;47.976;7.824;2022-12-15T17:20:19;-0.20;99.90
21033;DHT22;10675;47.976;7.824;2022-12-15T17:22:49;-0.20;99.90
21033;DHT22;10675;47.976;7.824;2022-12-15T17:25:20;-0.20;99.90
21033;DHT22;10675;47.976;7.824;2022-12-15T17:27:48;-0.10;99.90
21033;DHT22;10675;47.976;7.824;2022-12-15T17:30:15;-0.30;99.90
21033;DHT22;10675;47.976;7.824;2022-12-15T17:32:41;-0.30;99.90
21033;DHT22;10675;47.976;7.824;2022-12-15T17:35:08;-0.40;99.90
21033;DHT22;10675;47.976;7.824;2022-12-15T17:37:34;-0.20;99.90
21033;DHT22;10675;47.976;7.824;2022-12-15T17:39:59;-0.10;99.90
21033;DHT22;10675;47.976;7.824;2022-12-15T17:42:25;-0.20;99.90